Time;durP1;ratioP1;P1;durP2;ratioP2;P2;SDS_P1;SDS_P2;PMS_P1;PMS_P2;Temp;Humidity;BMP_temperature;BMP_pressure;BME280_temperature;BME280_humidity;BME280_pressure;Samples;Min_cycle;Max_cycle;Signal;HPM_P1;HPM_P2
2022/05/31 00:02:24;;;;;;;2.03;1.93;;;11.00;99.90;;;;;;5173814;28;20235;-49
2022/05/31 00:04:55;;;;;;;3.03;2.57;;;11.10;99.90;;;;;;5179672;28;20676;-50
2022/05/31 00:07:25;;;;;;;4.57;2.33;;;11.10;99.90;;;;;;5168175;28;20439;-53
2022/05/31 00:09:56;;;;;;;3.20;2.90;;;11.10;99.90;;;;;;5187749;28;20246;-49
2022/05/31 00:12:27;;;;;;;2.90;2.70;;;11.20;99.90;;;;;;5185514;28;20578;-51
2022/05/31 00:14:57;;;;;;;2.80;2.60;;;11.20;99.90;;;;;;5183066;28;20172;-50
2022/05/31 00:17:28;;;;;;;3.23;2.50;;;11.20;99.90;;;;;;5168669;28;20470;-49
2022/05/31 00:19:59;;;;;;;3.43;2.10;;;11.30;99.90;;;;;;5176295;28;20185;-50
2022/05/31 00:22:33;;;;;;;2.30;2.20;;;11.30;99.90;;;;;;5188767;28;20204;-50
2022/05/31 00:25:05;;;;;;;2.80;2.70;;;11.30;99.90;;;;;;5189780;28;20477;-50
2022/05/31 00:27:36;;;;;;;3.73;3.40;;;11.30;99.90;;;;;;5188178;28;20806;-52
2022/05/31 00:30:08;;;;;;;5.53;2.80;;;11.30;99.90;;;;;;5185143;28;20434;-50
2022/05/31 00:32:51;;;;;;;4.17;2.90;;;11.30;99.90;;;;;;5181886;28;20985;-49
2022/05/31 00:35:25;;;;;;;2.80;2.53;;;11.30;99.90;;;;;;5178120;28;20440;-50
2022/05/31 00:37:57;;;;;;;2.57;2.37;;;11.40;99.90;;;;;;5188942;28;20452;-50
2022/05/31 00:40:30;;;;;;;2.10;1.97;;;11.40;99.90;;;;;;5180628;28;20450;-50
2022/05/31 00:43:04;;;;;;;2.50;2.30;;;11.40;99.90;;;;;;5187386;28;20533;-49
2022/05/31 00:45:52;;;;;;;4.83;2.30;;;11.40;99.90;;;;;;5181242;28;20819;-51
2022/05/31 00:48:31;;;;;;;2.30;2.10;;;11.30;99.90;;;;;;5186779;28;20449;-51
2022/05/31 00:51:06;;;;;;;3.03;2.00;;;11.30;99.90;;;;;;5187771;28;20450;-50
2022/05/31 00:53:43;;;;;;;3.70;1.67;;;11.30;99.90;;;;;;5180269;28;20474;-49
2022/05/31 00:56:18;;;;;;;2.33;2.00;;;11.40;99.90;;;;;;5172728;28;20440;-49
2022/05/31 00:59:09;;;;;;;5.00;2.50;;;11.30;99.90;;;;;;5188856;28;20434;-49
2022/05/31 01:01:41;;;;;;;4.13;2.17;;;11.30;99.90;;;;;;5185533;28;20510;-49
2022/05/31 01:04:12;;;;;;;2.53;1.80;;;11.40;99.90;;;;;;5180662;28;20494;-51
2022/05/31 01:06:42;;;;;;;1.20;1.20;;;11.40;99.90;;;;;;5185982;28;20553;-50
2022/05/31 01:09:13;;;;;;;1.60;1.50;;;11.40;99.90;;;;;;5181744;28;20227;-49
2022/05/31 01:11:44;;;;;;;1.40;1.40;;;11.40;99.90;;;;;;5187114;28;20289;-50
2022/05/31 01:14:14;;;;;;;1.60;1.50;;;11.40;99.90;;;;;;5183110;28;20264;-49
2022/05/31 01:16:59;;;;;;;2.10;1.90;;;11.30;99.90;;;;;;5183603;28;20193;-51
2022/05/31 01:22:19;;;;;;;1.83;1.40;;;11.30;99.90;;;;;;5186469;28;20432;-50
2022/05/31 01:25:23;;;;;;;1.90;1.57;;;11.30;99.90;;;;;;5186592;28;20423;-50
2022/05/31 01:28:32;;;;;;;2.63;1.43;;;11.30;99.90;;;;;;5183734;28;20191;-51
2022/05/31 01:31:08;;;;;;;1.47;1.33;;;11.30;99.90;;;;;;5176170;28;20424;-50
2022/05/31 01:33:52;;;;;;;1.80;1.70;;;11.30;99.90;;;;;;5180911;28;20474;-52
2022/05/31 01:36:31;;;;;;;1.60;1.50;;;11.20;99.90;;;;;;5181142;28;20435;-53
2022/05/31 01:39:11;;;;;;;1.10;1.10;;;11.20;99.90;;;;;;5185029;28;20437;-53
2022/05/31 01:41:48;;;;;;;4.20;1.80;;;11.20;99.90;;;;;;5185255;28;20529;-52
2022/05/31 01:44:22;;;;;;;1.47;1.37;;;11.20;99.90;;;;;;5185760;28;20439;-54
2022/05/31 01:46:55;;;;;;;1.10;1.10;;;11.20;99.90;;;;;;5178166;28;20468;-53
2022/05/31 01:49:30;;;;;;;1.67;1.57;;;11.20;99.90;;;;;;5185179;28;20419;-53
2022/05/31 01:52:02;;;;;;;4.07;1.47;;;11.20;99.90;;;;;;5171924;28;20451;-53
2022/05/31 01:54:34;;;;;;;5.30;1.40;;;11.10;99.90;;;;;;5178703;28;20441;-53
2022/05/31 01:57:06;;;;;;;2.77;1.87;;;11.10;99.90;;;;;;5185935;28;20435;-53
2022/05/31 01:59:42;;;;;;;11.40;1.60;;;11.10;99.90;;;;;;5182425;28;20436;-52
2022/05/31 02:02:15;;;;;;;6.27;1.90;;;11.10;99.90;;;;;;5184005;28;20457;-53
2022/05/31 02:04:46;;;;;;;1.47;1.30;;;11.00;99.90;;;;;;5179492;28;20503;-55
2022/05/31 02:07:21;;;;;;;2.13;1.60;;;10.90;99.90;;;;;;5186169;28;20885;-53
2022/05/31 02:09:53;;;;;;;1.97;1.70;;;10.90;99.90;;;;;;5181006;28;20215;-52
2022/05/31 02:12:28;;;;;;;2.13;1.30;;;10.80;99.90;;;;;;5178281;28;20453;-56
2022/05/31 02:14:59;;;;;;;2.13;1.20;;;10.70;99.90;;;;;;5164799;28;20450;-53
2022/05/31 02:17:29;;;;;;;1.27;1.27;;;10.70;99.90;;;;;;5168310;28;20428;-53
2022/05/31 02:20:00;;;;;;;1.33;1.33;;;10.60;99.90;;;;;;5182413;28;20173;-54
2022/05/31 02:22:30;;;;;;;5.60;1.67;;;10.50;99.90;;;;;;5185204;28;20626;-53
2022/05/31 02:25:01;;;;;;;1.07;1.07;;;10.40;99.90;;;;;;5184890;28;20175;-54
2022/05/31 02:27:31;;;;;;;1.10;1.00;;;10.40;99.90;;;;;;5181842;28;20578;-52
2022/05/31 02:30:03;;;;;;;0.90;0.90;;;10.30;99.90;;;;;;5181556;28;20714;-54
2022/05/31 02:32:34;;;;;;;4.47;1.30;;;10.20;99.90;;;;;;5177728;28;20216;-54
2022/05/31 02:35:06;;;;;;;1.40;1.30;;;10.20;99.90;;;;;;5172460;28;20440;-52
2022/05/31 02:37:37;;;;;;;1.17;1.17;;;10.10;99.90;;;;;;5178584;28;20644;-52
2022/05/31 02:40:09;;;;;;;1.47;1.37;;;10.10;99.90;;;;;;5185453;28;20578;-53
2022/05/31 02:42:41;;;;;;;2.20;1.57;;;10.10;99.90;;;;;;5177427;28;20464;-53
2022/05/31 02:45:12;;;;;;;1.30;1.20;;;10.00;99.90;;;;;;5183705;28;20471;-53
2022/05/31 02:47:43;;;;;;;3.70;1.50;;;10.00;99.90;;;;;;5167260;28;20490;-53
2022/05/31 02:50:14;;;;;;;0.97;0.97;;;10.00;99.90;;;;;;5180103;28;20187;-54
2022/05/31 02:52:44;;;;;;;3.30;2.20;;;10.10;99.90;;;;;;5183824;28;20564;-54
2022/05/31 02:55:15;;;;;;;4.23;1.40;;;10.10;99.90;;;;;;5180566;28;20419;-53
2022/05/31 02:57:45;;;;;;;1.47;1.30;;;10.20;99.90;;;;;;5178411;28;20648;-54
2022/05/31 03:00:16;;;;;;;1.53;1.40;;;10.20;99.90;;;;;;5184820;28;20711;-54
2022/05/31 03:02:47;;;;;;;1.20;1.20;;;10.30;99.90;;;;;;5180626;28;20228;-52
2022/05/31 03:05:17;;;;;;;4.40;1.33;;;10.30;99.90;;;;;;5180038;28;20208;-52
2022/05/31 03:07:48;;;;;;;4.10;1.63;;;10.40;99.90;;;;;;5179849;28;20306;-53
2022/05/31 03:10:18;;;;;;;1.30;1.30;;;10.40;99.90;;;;;;5177171;28;20200;-54
2022/05/31 03:12:50;;;;;;;1.60;1.03;;;10.50;99.90;;;;;;5180760;28;20208;-54
2022/05/31 03:15:23;;;;;;;1.40;1.30;;;10.50;99.90;;;;;;5175946;28;20641;-53
2022/05/31 03:18:03;;;;;;;2.10;1.57;;;10.60;99.90;;;;;;5180789;28;20439;-54
2022/05/31 03:20:39;;;;;;;1.60;1.50;;;10.70;99.90;;;;;;5177796;28;20936;-54
2022/05/31 03:23:25;;;;;;;2.87;1.63;;;10.80;99.90;;;;;;5168348;28;20526;-53
2022/05/31 03:25:57;;;;;;;1.37;1.20;;;10.90;99.90;;;;;;5151495;28;20467;-53
2022/05/31 03:28:28;;;;;;;1.53;1.53;;;11.00;99.90;;;;;;5171185;28;20470;-53
2022/05/31 03:31:00;;;;;;;1.20;1.20;;;11.10;99.90;;;;;;5181920;28;20442;-53
2022/05/31 03:33:32;;;;;;;1.63;1.27;;;11.20;99.90;;;;;;5184294;28;20437;-53
2022/05/31 03:36:04;;;;;;;1.07;1.07;;;11.30;99.90;;;;;;5180490;28;20438;-53
2022/05/31 03:38:34;;;;;;;1.50;1.40;;;11.30;99.90;;;;;;5172598;28;20456;-54
2022/05/31 03:41:05;;;;;;;1.50;1.37;;;11.40;99.90;;;;;;5177752;28;20475;-54
2022/05/31 03:43:36;;;;;;;1.50;1.50;;;11.50;99.90;;;;;;5185683;28;20203;-54
2022/05/31 03:46:14;;;;;;;8.50;1.17;;;11.50;99.90;;;;;;5184283;28;20312;-52
2022/05/31 03:48:44;;;;;;;0.90;0.90;;;11.60;99.90;;;;;;5182523;28;20548;-50
2022/05/31 03:51:15;;;;;;;1.40;1.40;;;11.70;99.90;;;;;;5183766;28;20455;-49
2022/05/31 03:53:45;;;;;;;2.27;1.20;;;11.70;99.90;;;;;;5177647;28;20184;-48
2022/05/31 03:56:16;;;;;;;1.90;1.77;;;11.80;99.90;;;;;;5184239;28;20184;-50
2022/05/31 03:58:46;;;;;;;1.90;1.47;;;11.90;99.90;;;;;;5176912;28;20326;-51
2022/05/31 04:01:18;;;;;;;1.13;1.10;;;11.90;99.90;;;;;;5177642;28;20614;-49
2022/05/31 04:03:49;;;;;;;1.30;1.30;;;12.00;99.90;;;;;;5188565;28;20180;-50
2022/05/31 04:06:20;;;;;;;4.83;2.13;;;12.00;99.90;;;;;;5188110;28;20463;-47
2022/05/31 04:08:50;;;;;;;1.10;1.10;;;12.10;99.90;;;;;;5186923;28;20489;-49
2022/05/31 04:11:21;;;;;;;3.70;1.30;;;12.20;99.90;;;;;;5185109;28;20456;-51
2022/05/31 04:13:53;;;;;;;2.10;1.60;;;12.30;99.90;;;;;;5179746;28;20181;-49
2022/05/31 04:16:26;;;;;;;1.40;1.40;;;12.40;99.90;;;;;;5181128;28;20177;-49
2022/05/31 04:18:57;;;;;;;1.20;1.20;;;12.50;99.90;;;;;;5180340;28;20446;-49
2022/05/31 04:21:27;;;;;;;2.87;1.50;;;12.50;99.90;;;;;;5186462;28;20963;-51
2022/05/31 04:23:58;;;;;;;1.60;1.40;;;12.60;99.90;;;;;;5177173;28;20186;-50
2022/05/31 04:26:31;;;;;;;4.93;1.57;;;12.60;99.90;;;;;;5183994;28;20657;-49
2022/05/31 04:29:02;;;;;;;1.30;1.30;;;12.70;99.90;;;;;;5177850;28;20590;-49
2022/05/31 04:31:32;;;;;;;5.23;1.97;;;12.80;99.90;;;;;;5186129;28;20435;-50
2022/05/31 04:34:04;;;;;;;1.43;1.43;;;12.90;99.90;;;;;;5183274;28;20195;-50
2022/05/31 04:36:35;;;;;;;2.37;2.17;;;12.90;99.90;;;;;;5181464;28;20180;-50
2022/05/31 04:39:06;;;;;;;1.50;1.40;;;13.00;99.90;;;;;;5185335;28;20445;-49
2022/05/31 04:41:36;;;;;;;1.30;1.20;;;13.00;99.90;;;;;;5184892;28;20243;-48
2022/05/31 04:44:07;;;;;;;1.60;1.50;;;13.20;99.90;;;;;;5185450;28;20271;-51
2022/05/31 04:46:37;;;;;;;1.90;1.80;;;13.30;99.90;;;;;;5172155;28;20688;-49
2022/05/31 04:49:08;;;;;;;10.00;1.97;;;13.60;99.90;;;;;;5183839;28;20189;-49
2022/05/31 04:51:38;;;;;;;1.70;1.60;;;14.10;99.90;;;;;;5176611;28;20200;-49
2022/05/31 04:54:09;;;;;;;1.30;1.20;;;14.90;99.90;;;;;;5179087;28;20556;-52
2022/05/31 04:56:40;;;;;;;5.83;1.43;;;15.70;99.90;;;;;;5186926;28;20192;-50
2022/05/31 04:59:10;;;;;;;1.37;1.27;;;16.30;97.70;;;;;;5181533;28;20200;-50
2022/05/31 05:01:41;;;;;;;2.03;1.20;;;16.80;93.80;;;;;;5190664;28;20204;-50
2022/05/31 05:04:12;;;;;;;1.17;1.10;;;17.20;91.00;;;;;;5189084;28;20531;-49
2022/05/31 05:06:43;;;;;;;1.43;1.33;;;17.70;87.00;;;;;;5181535;28;20212;-49
2022/05/31 05:09:13;;;;;;;1.93;1.30;;;18.50;79.10;;;;;;5177499;28;20461;-51
2022/05/31 05:11:45;;;;;;;1.90;1.80;;;19.30;69.60;;;;;;5183266;28;20223;-50
2022/05/31 05:14:15;;;;;;;2.90;1.97;;;19.90;63.50;;;;;;5181954;28;20645;-49
2022/05/31 05:16:46;;;;;;;2.20;1.73;;;20.00;59.10;;;;;;5178847;28;20502;-49
2022/05/31 05:19:16;;;;;;;1.33;1.23;;;20.20;57.20;;;;;;5182701;28;20216;-50
2022/05/31 05:21:47;;;;;;;2.87;1.60;;;20.60;56.60;;;;;;5179801;28;20214;-49
2022/05/31 05:24:17;;;;;;;4.93;1.50;;;21.20;54.40;;;;;;5178554;28;20188;-50
2022/05/31 05:26:48;;;;;;;3.33;1.80;;;22.10;51.60;;;;;;5181014;28;20692;-50
2022/05/31 05:32:08;;;;;;;2.03;1.93;;;24.70;44.90;;;;;;5186446;28;20287;-50
2022/05/31 05:34:39;;;;;;;1.90;1.80;;;26.30;42.60;;;;;;5185474;28;20938;-49
2022/05/31 05:37:09;;;;;;;4.53;1.80;;;27.20;38.70;;;;;;5182128;28;20445;-51
2022/05/31 05:39:40;;;;;;;2.83;1.23;;;26.80;36.00;;;;;;5179493;28;20207;-49
2022/05/31 05:42:11;;;;;;;2.50;1.70;;;26.60;37.10;;;;;;5183648;28;20220;-51
2022/05/31 05:44:42;;;;;;;1.73;1.63;;;27.40;36.80;;;;;;5182308;28;20184;-51
2022/05/31 05:47:14;;;;;;;2.87;1.43;;;28.30;35.70;;;;;;5171626;28;20939;-50
2022/05/31 05:49:44;;;;;;;8.30;6.70;;;29.50;34.20;;;;;;5186310;28;20415;-51
2022/05/31 05:52:16;;;;;;;2.77;1.20;;;30.50;32.70;;;;;;5184940;28;20447;-50
2022/05/31 05:54:46;;;;;;;2.90;1.63;;;31.20;30.80;;;;;;5186083;28;20238;-52
2022/05/31 05:57:17;;;;;;;3.83;1.60;;;31.70;30.00;;;;;;5184707;28;20466;-50
2022/05/31 05:59:47;;;;;;;2.83;1.50;;;31.50;29.00;;;;;;5183311;28;20653;-52
2022/05/31 06:02:32;;;;;;;1.27;1.20;;;30.90;29.90;;;;;;5174570;28;20247;-53
2022/05/31 06:05:14;;;;;;;2.73;1.80;;;31.50;29.20;;;;;;5184386;28;20556;-52
2022/05/31 06:07:54;;;;;;;2.17;1.63;;;32.20;28.00;;;;;;5179607;28;20429;-52
2022/05/31 06:10:39;;;;;;;4.87;1.23;;;32.00;28.00;;;;;;5175382;28;20489;-50
2022/05/31 06:13:22;;;;;;;3.10;1.60;;;32.00;28.30;;;;;;5175120;28;20885;-51
2022/05/31 06:15:56;;;;;;;2.30;1.97;;;32.40;27.50;;;;;;5174879;28;20455;-51
2022/05/31 06:18:33;;;;;;;10.13;2.30;;;32.50;27.90;;;;;;5185088;28;20930;-50
2022/05/31 06:21:06;;;;;;;2.53;1.47;;;31.80;27.20;;;;;;5173607;28;20281;-50
2022/05/31 06:23:38;;;;;;;2.67;1.30;;;31.80;27.40;;;;;;5175252;28;20263;-51
2022/05/31 06:26:08;;;;;;;1.47;1.37;;;31.90;27.70;;;;;;5183284;28;20246;-51
2022/05/31 06:28:39;;;;;;;1.30;1.20;;;32.40;27.30;;;;;;5183086;28;20703;-51
2022/05/31 06:31:09;;;;;;;1.70;1.60;;;32.60;26.10;;;;;;5168655;28;20184;-52
2022/05/31 06:33:40;;;;;;;19.33;2.60;;;32.00;26.80;;;;;;5178202;28;20187;-51
2022/05/31 06:36:10;;;;;;;1.47;1.20;;;32.60;26.80;;;;;;5180804;28;20192;-52
2022/05/31 06:38:42;;;;;;;2.80;1.50;;;33.20;26.00;;;;;;5176559;28;20598;-52
2022/05/31 06:41:13;;;;;;;6.00;1.57;;;32.90;25.80;;;;;;5185655;28;20186;-50
2022/05/31 06:43:44;;;;;;;2.03;1.33;;;32.50;25.40;;;;;;5179168;28;20422;-51
2022/05/31 06:46:15;;;;;;;1.30;1.20;;;32.70;25.80;;;;;;5174870;28;21017;-52
2022/05/31 06:48:45;;;;;;;3.70;1.53;;;32.90;25.50;;;;;;5193355;28;20191;-52
2022/05/31 06:56:48;;;;;;;4.83;2.40;;;32.90;26.00;;;;;;5177153;28;20223;-52
2022/05/31 06:57:02;;;;;;;1.73;1.63;;;33.50;24.80;;;;;;5180033;28;20439;-54
2022/05/31 06:59:33;;;;;;;2.50;1.40;;;33.20;24.90;;;;;;5183069;28;20973;-52
2022/05/31 07:02:04;;;;;;;4.07;2.83;;;33.00;24.90;;;;;;5185076;28;20212;-52
2022/05/31 07:04:35;;;;;;;1.90;1.80;;;32.20;25.20;;;;;;5182237;28;20187;-52
2022/05/31 07:07:06;;;;;;;2.10;1.50;;;31.80;25.70;;;;;;5181016;28;20216;-53
2022/05/31 07:09:37;;;;;;;2.50;0.77;;;31.80;25.80;;;;;;5179963;28;20437;-52
2022/05/31 07:12:08;;;;;;;4.93;2.07;;;30.40;26.70;;;;;;5175232;28;20211;-51
2022/05/31 07:14:38;;;;;;;4.30;2.30;;;29.80;28.00;;;;;;5182385;28;20196;-51
2022/05/31 07:17:09;;;;;;;37.57;6.60;;;29.90;27.50;;;;;;5181541;28;20510;-51
2022/05/31 07:19:42;;;;;;;2.63;2.03;;;31.00;27.10;;;;;;5170794;28;20193;-52
2022/05/31 07:22:12;;;;;;;8.33;1.80;;;32.20;25.60;;;;;;5179088;28;20482;-50
2022/05/31 07:24:43;;;;;;;3.30;1.50;;;31.50;25.40;;;;;;5172042;28;20481;-50
2022/05/31 07:27:14;;;;;;;1.40;1.40;;;31.50;25.60;;;;;;5178243;28;20244;-52
2022/05/31 07:29:45;;;;;;;6.17;1.40;;;31.70;25.60;;;;;;5168477;28;20179;-50
2022/05/31 07:32:15;;;;;;;2.90;1.40;;;31.40;25.30;;;;;;5178177;28;20455;-50
2022/05/31 07:34:46;;;;;;;2.33;0.80;;;31.20;25.20;;;;;;5167808;28;20180;-52
2022/05/31 07:37:17;;;;;;;7.80;2.20;;;29.30;26.70;;;;;;5173141;28;20284;-51
2022/05/31 07:39:48;;;;;;;1.60;1.10;;;28.30;28.10;;;;;;5189578;28;20322;-50
2022/05/31 07:42:19;;;;;;;12.37;2.50;;;28.90;28.00;;;;;;5161228;28;20224;-51
2022/05/31 07:44:56;;;;;;;2.70;1.13;;;30.70;26.50;;;;;;5163795;28;20444;-52
2022/05/31 07:47:26;;;;;;;1.20;1.10;;;31.30;25.50;;;;;;5181957;28;20626;-51
2022/05/31 07:49:57;;;;;;;10.50;2.07;;;31.10;25.50;;;;;;5174163;28;20446;-50
2022/05/31 07:52:27;;;;;;;3.13;1.07;;;30.80;26.10;;;;;;5184596;28;20208;-51
2022/05/31 07:54:58;;;;;;;2.67;1.20;;;30.50;25.80;;;;;;5184952;28;20231;-50
2022/05/31 08:00:18;;;;;;;4.30;1.40;;;28.00;27.30;;;;;;5179077;28;20239;-51
2022/05/31 08:02:48;;;;;;;1.47;1.37;;;27.00;28.50;;;;;;5177216;28;20467;-50
2022/05/31 08:05:19;;;;;;;3.97;1.67;;;25.80;29.30;;;;;;5185861;28;20177;-50
2022/05/31 08:07:49;;;;;;;5.43;2.07;;;25.60;29.50;;;;;;5184529;28;20188;-53
2022/05/31 08:10:21;;;;;;;1.10;1.00;;;25.90;29.50;;;;;;5151651;28;20302;-53
2022/05/31 08:12:52;;;;;;;3.10;1.93;;;27.30;28.50;;;;;;5179808;28;20243;-51
2022/05/31 08:15:22;;;;;;;8.60;3.37;;;28.50;27.80;;;;;;5180470;28;20486;-50
2022/05/31 08:17:53;;;;;;;1.70;1.60;;;29.30;26.50;;;;;;5182237;28;20212;-50
2022/05/31 08:20:23;;;;;;;4.43;1.50;;;30.40;25.70;;;;;;5185969;28;20259;-51
2022/05/31 08:22:54;;;;;;;30.50;4.73;;;31.10;25.00;;;;;;5181573;28;20208;-52
2022/05/31 08:25:24;;;;;;;7.43;2.37;;;32.00;24.50;;;;;;5180314;28;20660;-50
2022/05/31 08:27:55;;;;;;;4.63;1.77;;;32.30;24.20;;;;;;5182665;28;20184;-51
2022/05/31 08:30:26;;;;;;;2.77;1.37;;;32.70;24.00;;;;;;5168807;28;20184;-51
2022/05/31 08:32:56;;;;;;;2.80;1.80;;;33.00;23.90;;;;;;5178455;28;20266;-50
2022/05/31 08:35:27;;;;;;;2.93;2.00;;;31.60;23.60;;;;;;5182558;28;20559;-51
2022/05/31 08:37:57;;;;;;;2.87;1.17;;;29.40;25.70;;;;;;5179311;28;20602;-50
2022/05/31 08:40:28;;;;;;;3.87;1.43;;;28.70;26.40;;;;;;5182721;28;20177;-50
2022/05/31 08:43:05;;;;;;;5.33;1.57;;;29.10;26.50;;;;;;5182454;28;20310;-50
2022/05/31 08:45:47;;;;;;;1.27;1.23;;;29.60;25.70;;;;;;5183092;28;20200;-51
2022/05/31 08:48:32;;;;;;;2.90;1.97;;;29.80;25.30;;;;;;5187641;28;20431;-49
2022/05/31 08:57:02;;;;;;;3.13;1.57;;;24.50;29.80;;;;;;5185338;28;20427;-50
2022/05/31 08:59:40;;;;;;;1.73;1.40;;;23.10;31.20;;;;;;5188042;28;20797;-50
2022/05/31 09:02:24;;;;;;;4.93;1.73;;;22.20;32.40;;;;;;5182335;28;20510;-49
2022/05/31 09:05:03;;;;;;;0.93;0.93;;;21.50;33.90;;;;;;5186141;28;20875;-49
2022/05/31 09:07:42;;;;;;;1.50;1.40;;;20.90;34.40;;;;;;5186813;28;21003;-50
2022/05/31 09:10:21;;;;;;;2.20;1.13;;;20.90;35.20;;;;;;5183196;28;20477;-50
2022/05/31 09:13:04;;;;;;;9.50;1.60;;;20.90;34.30;;;;;;5181144;28;20455;-52
2022/05/31 09:15:49;;;;;;;1.80;1.70;;;20.70;34.70;;;;;;5182625;28;20437;-50
2022/05/31 09:18:50;;;;;;;1.77;1.37;;;20.70;35.30;;;;;;5182438;28;20490;-51
2022/05/31 09:21:37;;;;;;;1.93;1.73;;;20.80;35.80;;;;;;5181306;28;20541;-51
2022/05/31 09:24:11;;;;;;;1.40;1.30;;;21.00;35.40;;;;;;5181553;28;20514;-52
2022/05/31 09:27:06;;;;;;;1.63;1.53;;;21.10;35.40;;;;;;5182804;28;20470;-51
2022/05/31 09:30:01;;;;;;;6.70;1.90;;;20.60;34.90;;;;;;5202905;28;21010;-50
2022/05/31 09:32:50;;;;;;;3.07;1.53;;;19.90;36.00;;;;;;5183896;28;20526;-50
2022/05/31 09:35:39;;;;;;;2.60;1.67;;;20.00;37.00;;;;;;5182084;28;20523;-50
2022/05/31 09:38:18;;;;;;;3.17;1.20;;;20.30;36.50;;;;;;5176295;28;20429;-50
2022/05/31 09:41:16;;;;;;;1.47;1.33;;;20.50;36.30;;;;;;5182678;28;20440;-50
2022/05/31 09:43:56;;;;;;;1.37;1.20;;;20.60;35.40;;;;;;5186075;28;20435;-50
2022/05/31 09:46:40;;;;;;;1.60;1.17;;;20.80;35.10;;;;;;5181896;28;20474;-51
2022/05/31 09:49:36;;;;;;;4.50;3.03;;;21.00;35.10;;;;;;5186006;28;20450;-50
2022/05/31 09:52:30;;;;;;;7.83;2.17;;;21.10;34.50;;;;;;5174733;28;20827;-50
2022/05/31 09:58:13;;;;;;;4.30;1.57;;;21.30;34.60;;;;;;5178857;28;20467;-49
2022/05/31 10:01:03;;;;;;;2.53;1.20;;;21.40;35.00;;;;;;5181119;28;20516;-51
2022/05/31 10:03:38;;;;;;;1.53;1.33;;;21.00;34.10;;;;;;5170916;28;20828;-50
2022/05/31 10:06:20;;;;;;;1.60;1.20;;;20.70;34.50;;;;;;5181463;28;20494;-50
2022/05/31 10:08:52;;;;;;;0.97;0.87;;;20.70;35.60;;;;;;5180021;28;20434;-52
2022/05/31 10:11:32;;;;;;;1.50;1.07;;;20.60;35.70;;;;;;5174007;28;20446;-51
2022/05/31 10:14:13;;;;;;;4.30;1.77;;;21.10;36.20;;;;;;5183124;28;20507;-52
2022/05/31 10:16:46;;;;;;;1.47;1.13;;;21.50;35.40;;;;;;5178006;28;20865;-50
2022/05/31 10:19:22;;;;;;;1.90;1.33;;;21.40;34.50;;;;;;5185508;28;20484;-50
2022/05/31 10:21:53;;;;;;;7.17;1.50;;;21.30;34.60;;;;;;5164381;28;20486;-52
2022/05/31 10:24:29;;;;;;;5.23;2.10;;;21.40;35.10;;;;;;5182638;28;20428;-50
2022/05/31 10:27:09;;;;;;;7.23;2.90;;;21.40;34.50;;;;;;5179686;28;20580;-51
2022/05/31 10:29:53;;;;;;;3.50;2.40;;;21.30;34.60;;;;;;5176393;28;20526;-52
2022/05/31 10:32:29;;;;;;;4.33;1.40;;;21.50;34.50;;;;;;5173781;28;20439;-51
2022/05/31 10:35:22;;;;;;;2.17;1.60;;;21.60;34.00;;;;;;5184198;28;20462;-51
2022/05/31 10:38:16;;;;;;;1.07;1.03;;;21.70;33.10;;;;;;5183071;28;20449;-52
2022/05/31 10:40:59;;;;;;;1.60;1.07;;;21.70;33.70;;;;;;5184660;28;20442;-50
2022/05/31 10:43:40;;;;;;;1.37;1.10;;;21.40;33.80;;;;;;5180867;28;20459;-51
2022/05/31 10:46:23;;;;;;;2.53;1.03;;;21.20;35.00;;;;;;5174871;28;20470;-50
2022/05/31 10:48:57;;;;;;;2.03;1.60;;;21.00;34.40;;;;;;5182359;28;20446;-50
2022/05/31 10:51:46;;;;;;;2.83;1.47;;;20.70;34.90;;;;;;5182000;28;20455;-51
2022/05/31 10:54:43;;;;;;;4.50;1.27;;;20.50;35.30;;;;;;5171986;28;20944;-50
2022/05/31 10:57:18;;;;;;;1.50;1.33;;;20.30;36.10;;;;;;5178157;28;20919;-50
2022/05/31 10:59:57;;;;;;;5.37;2.10;;;20.40;35.90;;;;;;5179434;28;20407;-51
2022/05/31 11:02:46;;;;;;;1.80;1.70;;;20.70;36.10;;;;;;5172184;28;20451;-50
2022/05/31 11:05:25;;;;;;;1.73;1.30;;;21.00;35.20;;;;;;5170414;28;20463;-54
2022/05/31 11:11:32;;;;;;;1.50;1.30;;;21.00;35.30;;;;;;5182747;28;20804;-53
2022/05/31 11:14:18;;;;;;;7.07;2.10;;;21.10;35.00;;;;;;5178920;28;20518;-51
2022/05/31 11:17:30;;;;;;;4.20;1.33;;;21.00;35.80;;;;;;5178396;28;20431;-48
2022/05/31 11:20:28;;;;;;;1.90;1.50;;;20.90;35.90;;;;;;5180743;28;20440;-51
2022/05/31 11:23:09;;;;;;;7.00;3.87;;;20.70;34.90;;;;;;5184594;28;20541;-52
2022/05/31 11:26:07;;;;;;;2.83;1.63;;;20.70;35.90;;;;;;5186393;28;20465;-50
2022/05/31 11:29:13;;;;;;;1.60;1.50;;;20.70;35.60;;;;;;5185101;28;20431;-49
2022/05/31 11:32:17;;;;;;;2.10;1.30;;;20.80;34.50;;;;;;5185458;28;20469;-50
2022/05/31 11:35:11;;;;;;;2.07;1.87;;;20.90;34.80;;;;;;5185565;28;20442;-50
2022/05/31 11:37:57;;;;;;;6.10;4.37;;;21.10;35.70;;;;;;5181726;28;20437;-50
2022/05/31 11:40:58;;;;;;;8.10;4.87;;;21.20;34.50;;;;;;5185611;28;20497;-51
2022/05/31 11:44:12;;;;;;;1.13;1.13;;;21.40;34.20;;;;;;5221223;23;20496;-59
2022/05/31 11:46:48;;;;;;;2.83;1.43;;;20.90;34.20;;;;;;5222204;28;20471;-58
2022/05/31 11:49:31;;;;;;;1.67;1.57;;;20.90;34.80;;;;;;5224988;28;20567;-58
2022/05/31 11:52:11;;;;;;;12.10;2.80;;;21.20;35.10;;;;;;5220384;28;20535;-59
2022/05/31 11:58:07;;;;;;;1.40;1.30;;;21.20;35.10;;;;;;5220605;28;20440;-61
2022/05/31 12:01:04;;;;;;;1.33;1.30;;;21.30;34.70;;;;;;5213342;28;20486;-59
2022/05/31 12:03:43;;;;;;;0.97;0.97;;;21.50;34.60;;;;;;5219964;28;20457;-59
2022/05/31 12:06:33;;;;;;;2.10;2.00;;;21.40;33.90;;;;;;5224789;28;20552;-59
2022/05/31 12:09:31;;;;;;;3.07;1.87;;;21.40;33.80;;;;;;5218959;28;20430;-58
2022/05/31 12:12:30;;;;;;;7.07;1.20;;;21.40;34.20;;;;;;5221332;28;20461;-58
2022/05/31 12:15:05;;;;;;;5.80;1.53;;;21.40;34.40;;;;;;5219551;28;20432;-58
2022/05/31 12:17:51;;;;;;;3.60;1.33;;;21.40;34.00;;;;;;5219364;28;20444;-59
2022/05/31 12:20:31;;;;;;;1.13;0.97;;;21.30;34.30;;;;;;5223219;28;20516;-58
2022/05/31 12:23:21;;;;;;;3.70;1.30;;;21.10;35.30;;;;;;5224654;28;20449;-59
2022/05/31 12:25:57;;;;;;;1.77;1.53;;;20.80;34.60;;;;;;5226803;28;20515;-60
2022/05/31 12:28:44;;;;;;;1.40;1.40;;;20.70;35.20;;;;;;5227504;28;20537;-60
2022/05/31 12:31:25;;;;;;;2.20;1.60;;;20.50;35.40;;;;;;5222489;28;20478;-59
2022/05/31 12:34:21;;;;;;;1.43;1.33;;;20.10;36.60;;;;;;5227740;28;20436;-57
2022/05/31 12:37:12;;;;;;;2.67;1.80;;;20.10;36.30;;;;;;5222873;28;20495;-59
2022/05/31 12:39:46;;;;;;;1.70;1.60;;;20.00;35.90;;;;;;5218359;28;20445;-59
2022/05/31 12:42:26;;;;;;;15.87;9.33;;;20.10;36.60;;;;;;5214134;28;20449;-59
2022/05/31 12:45:18;;;;;;;7.60;5.37;;;20.30;36.70;;;;;;5229252;28;20475;-59
2022/05/31 12:47:55;;;;;;;2.43;1.20;;;20.70;36.20;;;;;;5220554;28;21076;-58
2022/05/31 12:51:06;;;;;;;2.60;1.00;;;21.30;36.10;;;;;;5218692;28;20509;-58
2022/05/31 12:53:39;;;;;;;4.10;3.70;;;21.60;34.20;;;;;;5223275;28;20473;-59
2022/05/31 12:56:34;;;;;;;3.77;3.00;;;21.60;34.80;;;;;;5222585;28;20425;-58
2022/05/31 12:59:07;;;;;;;1.50;1.47;;;21.30;34.20;;;;;;5227286;28;20872;-58
2022/05/31 13:01:59;;;;;;;1.10;1.10;;;21.10;34.80;;;;;;5227737;28;20426;-59
2022/05/31 13:04:33;;;;;;;3.33;1.60;;;21.00;35.30;;;;;;5217500;28;20426;-58
2022/05/31 13:07:18;;;;;;;1.30;1.30;;;20.90;34.60;;;;;;5223894;28;20814;-61
2022/05/31 13:09:49;;;;;;;2.13;1.87;;;21.10;35.50;;;;;;5226205;28;20429;-60
2022/05/31 13:21:10;;;;;;;0.90;0.90;;;22.00;33.80;;;;;;5222690;28;20420;-59
2022/05/31 13:23:41;;;;;;;4.70;3.27;;;21.90;33.40;;;;;;5218326;28;20534;-59
2022/05/31 13:26:20;;;;;;;1.60;1.50;;;21.80;33.90;;;;;;5216016;28;20482;-59
2022/05/31 13:29:07;;;;;;;1.60;1.50;;;21.70;34.10;;;;;;5221570;28;20425;-61
2022/05/31 13:31:54;;;;;;;2.53;1.40;;;21.90;35.10;;;;;;5219058;28;20435;-59
2022/05/31 13:34:28;;;;;;;32.33;4.00;;;21.90;33.70;;;;;;5224053;28;20441;-60
2022/05/31 13:37:00;;;;;;;1.50;1.37;;;21.60;34.60;;;;;;5223761;28;20801;-59
2022/05/31 13:39:41;;;;;;;2.97;2.10;;;21.40;34.40;;;;;;5220990;28;20433;-58
2022/05/31 13:42:25;;;;;;;1.50;1.40;;;21.10;34.50;;;;;;5224198;28;20457;-59
2022/05/31 13:45:05;;;;;;;2.37;1.40;;;20.70;35.10;;;;;;5221321;28;20425;-59
2022/05/31 13:47:45;;;;;;;1.60;1.60;;;20.60;35.60;;;;;;5225808;28;20475;-58
2022/05/31 13:50:22;;;;;;;1.53;1.43;;;20.60;35.70;;;;;;5226167;28;20444;-58
2022/05/31 13:52:53;;;;;;;6.50;4.70;;;20.40;35.30;;;;;;5222969;28;20488;-58
2022/05/31 13:55:29;;;;;;;6.40;2.43;;;20.20;36.00;;;;;;5219046;28;20448;-58
2022/05/31 13:58:00;;;;;;;4.90;4.50;;;20.20;36.20;;;;;;5226234;28;20433;-57
2022/05/31 14:00:46;;;;;;;5.47;4.07;;;20.30;36.40;;;;;;5227293;28;20501;-58
2022/05/31 14:03:21;;;;;;;3.83;2.10;;;20.50;36.50;;;;;;5219743;28;21044;-58
2022/05/31 14:05:59;;;;;;;2.10;2.00;;;20.50;35.50;;;;;;5207810;28;20477;-57
2022/05/31 14:08:57;;;;;;;2.10;1.70;;;20.50;35.90;;;;;;5224255;28;20531;-58
2022/05/31 14:11:32;;;;;;;1.40;1.40;;;20.70;36.30;;;;;;5209815;28;20845;-57